ボゴタ の空港の天気 - METARとTAF

エルドラド国際空港(ボコダ) ( SKBO / BOG ) - コロンビア ボゴタ
飛行場実況気象(Metar)
観測時間08/11 01:00 COT (08/11 06:00 UTC)
風向・風速西南西 2m/s
視程10km以上
天気現象
少しの雲 雲底高度 520m
全天の8割程度の雲 雲底高度 2440m
気温12℃
湿度88%
気圧1027hPa
METARSKBO 110600Z 24003KT 9999 FEW017 BKN080 12/10 A3033 NOSIG
過去の天気等 Google飛行場航空写真 Wunderground天気予報

過去48時間のMETAR

飛行場予報(TAF)
発表時間: 8/10 23:30 COT (8/11 04:30 UTC)
予報対象時間: 11日1時 COT ~ 12日1時 COT
風向・風速北東 2m/s
視程10km以上
少しの雲 雲底高度 520m
全天の4割程度の雲 雲底高度 2440m
11日8時 COT ~ 11日10時 COT に徐々に
風向・風速南東 6m/s
11日14時 COT ~ 11日17時 COT に 確率 40% で一時的に
天気現象霧雨
全天の8割程度の雲 雲底高度 460m
11日21時 COT ~ 11日23時 COT に徐々に
風向・風速不定 1m/s
TAF SKBO 110430Z 1106/1206 05004KT 9999 FEW017 SCT080
BECMG 1113/1115 14012KT
PROB40 TEMPO 1119/1122 DZ BKN015
BECMG 1202/1204 VRB02KT TX19/1119Z TN09/1110Z